Austin Straubel International Airport

Airport
ICAO code: 
KGRB
Summary
ICAO Region: 
NAM
Territory: 
Location: 
Green Bay, Wisconsin,
Elevation: 
695 ft
Coordinates: 
Aerial View: 
44° 29' 31.107" N, 88° 7' 39.023" W
Airport CFIT: 
Altimeter Temperature Error Correction
Metar
Observation
KGRB 060653Z AUTO 24011KT 10SM FEW015 BKN048 OVC100 01/M02 A2952 RMK AO2 SLP006 T00111017 $
Station
Green Bay, Austin Straubel International Airport
Date/Time
2021-12-06 06:53:00
Wind direction
240°
Wind speed
11 kts
Lowest cloud amount
few clouds
Temperature
1.1°C
Dew point
-1.7°C
Humidity
81%
Weather condition
n/a

Description

Austin Straubel International Airport is a public use airport located in Brown County, Wisconsin, 13 km southwest of the central business district of Green Bay.

Climatology

Humid continental climate (Köppen climate classification Dfa) - characterized by four seasons: cold, windy, snowy winters, mild springs, hot, humid summers, and crisp and relatively short autumns. Precipitation reaches its lowest in January and February and peaks in summer and latter half of spring.

Runways

Designator Length Width Surface Rops
12/30 975 23 ASP No/No
6/24 2347 46 CON Yes/Yes
18/36 2500 46 CON Yes/Yes
Airport map: 
Aerial View: 

SKYbrary Partners:

Safety knowledge contributed by: